createdAt,value
2018-12-11T00:01:29.113Z,5.50
2018-12-11T00:04:03.912Z,5.50
2018-12-11T00:06:37.600Z,5.50
2018-12-11T00:09:14.212Z,5.50
2018-12-11T00:11:48.061Z,5.50
2018-12-11T00:14:18.884Z,5.60
2018-12-11T00:16:48.606Z,5.50
2018-12-11T00:19:20.463Z,5.50
2018-12-11T00:21:57.056Z,5.50
2018-12-11T00:24:31.053Z,5.40
2018-12-11T00:27:06.926Z,5.50
2018-12-11T00:29:38.075Z,5.40
2018-12-11T00:32:15.449Z,5.50
2018-12-11T00:34:45.972Z,5.50
2018-12-11T00:37:16.807Z,5.50
2018-12-11T00:39:48.106Z,5.50
2018-12-11T00:42:23.757Z,5.40
2018-12-11T00:45:05.363Z,5.40
2018-12-11T00:47:34.967Z,5.50
2018-12-11T00:50:05.134Z,5.50
2018-12-11T00:52:36.374Z,5.50
2018-12-11T00:55:07.313Z,5.50
2018-12-11T00:57:38.060Z,5.50
2018-12-11T01:00:09.941Z,5.50
2018-12-11T01:02:49.768Z,5.50
2018-12-11T01:05:19.631Z,5.50
2018-12-11T01:07:47.183Z,5.60
2018-12-11T01:10:16.987Z,5.60
2018-12-11T01:12:50.205Z,5.60
2018-12-11T01:15:20.776Z,5.60
2018-12-11T01:17:50.854Z,5.60
2018-12-11T01:20:20.438Z,5.60
2018-12-11T01:22:55.932Z,5.60
2018-12-11T01:25:26.127Z,5.60
2018-12-11T01:27:55.885Z,5.60
2018-12-11T01:30:25.607Z,5.60
2018-12-11T01:33:12.746Z,5.60
2018-12-11T01:35:42.329Z,5.60
2018-12-11T01:38:11.771Z,5.60
2018-12-11T01:40:41.257Z,5.70
2018-12-11T01:43:15.539Z,5.70
2018-12-11T01:45:46.370Z,5.70
2018-12-11T01:48:18.853Z,5.70
2018-12-11T01:50:55.641Z,5.60
2018-12-11T01:53:35.555Z,5.60
2018-12-11T01:56:05.467Z,5.70
2018-12-11T01:58:35.415Z,5.70
2018-12-11T02:01:04.992Z,5.60
2018-12-11T02:03:39.187Z,5.60
2018-12-11T02:06:08.629Z,5.60
2018-12-11T02:08:38.078Z,5.70
2018-12-11T02:11:08.027Z,5.70
2018-12-11T02:13:41.677Z,5.70
2018-12-11T02:16:12.005Z,5.70
2018-12-11T02:18:43.147Z,5.70
2018-12-11T02:21:13.119Z,5.70
2018-12-11T02:23:44.982Z,5.70
2018-12-11T02:26:15.085Z,5.70
2018-12-11T02:28:44.519Z,5.70
2018-12-11T02:31:14.152Z,5.70
2018-12-11T02:33:49.836Z,5.70
2018-12-11T02:36:19.370Z,5.70
2018-12-11T02:38:48.878Z,5.70
2018-12-11T02:41:19.978Z,5.70
2018-12-11T02:43:56.560Z,5.70
2018-12-11T02:46:27.368Z,5.70
2018-12-11T02:48:57.073Z,5.70
2018-12-11T02:51:29.970Z,5.70
2018-12-11T02:54:02.981Z,5.70
2018-12-11T02:56:32.430Z,5.80
2018-12-11T02:59:01.953Z,5.80
2018-12-11T03:01:31.465Z,5.80
2018-12-11T03:04:04.481Z,5.80
2018-12-11T03:06:34.069Z,5.80
2018-12-11T03:09:06.891Z,5.80
2018-12-11T03:11:36.813Z,5.90
2018-12-11T03:14:06.531Z,5.80
2018-12-11T03:16:36.971Z,5.90
2018-12-11T03:19:09.807Z,5.90
2018-12-11T03:21:40.608Z,5.90
2018-12-11T03:24:10.128Z,5.90
2018-12-11T03:26:39.878Z,5.90
2018-12-11T03:29:13.478Z,5.90
2018-12-11T03:31:43.296Z,5.90
2018-12-11T03:34:13.070Z,6.00
2018-12-11T03:36:42.533Z,6.00
2018-12-11T03:39:12.960Z,6.00
2018-12-11T03:41:48.633Z,6.00
2018-12-11T03:44:19.342Z,6.00
2018-12-11T03:46:48.872Z,6.00
2018-12-11T03:49:24.825Z,6.00
2018-12-11T03:51:58.162Z,6.00
2018-12-11T03:54:28.006Z,6.00
2018-12-11T03:56:57.748Z,6.00
2018-12-11T03:59:30.741Z,6.00
2018-12-11T04:02:06.733Z,6.00
2018-12-11T04:04:36.283Z,6.00
2018-12-11T04:07:05.687Z,6.00
2018-12-11T04:09:35.413Z,6.00
2018-12-11T04:12:09.001Z,6.10
2018-12-11T04:14:38.867Z,6.00
2018-12-11T04:17:08.393Z,6.10
2018-12-11T04:19:37.957Z,6.10
2018-12-11T04:22:11.210Z,6.10
2018-12-11T04:24:41.126Z,6.10
2018-12-11T04:27:10.768Z,6.10
2018-12-11T04:29:40.384Z,6.10
2018-12-11T04:32:18.037Z,6.10
2018-12-11T04:34:47.698Z,6.10
2018-12-11T04:37:17.481Z,6.10
2018-12-11T04:39:47.521Z,6.10
2018-12-11T04:42:20.763Z,6.10
2018-12-11T04:44:53.445Z,6.20
2018-12-11T04:47:23.915Z,6.20
2018-12-11T04:49:53.518Z,6.20
2018-12-11T04:52:30.240Z,6.20
2018-12-11T04:54:59.886Z,6.20
2018-12-11T04:57:29.648Z,6.30
2018-12-11T05:00:02.264Z,6.20
2018-12-11T05:02:35.830Z,6.20
2018-12-11T05:05:06.668Z,6.20
2018-12-11T05:07:36.713Z,6.20
2018-12-11T05:10:08.572Z,6.20
2018-12-11T05:12:41.732Z,6.20
2018-12-11T05:15:11.892Z,6.20
2018-12-11T05:17:42.313Z,6.20
2018-12-11T05:20:12.293Z,6.20
2018-12-11T05:22:48.138Z,6.20
2018-12-11T05:25:17.959Z,6.30
2018-12-11T05:27:47.729Z,6.20
2018-12-11T05:30:18.659Z,6.20
2018-12-11T05:32:53.886Z,6.20
2018-12-11T05:35:24.295Z,6.30
2018-12-11T05:37:54.479Z,6.30
2018-12-11T05:40:24.831Z,6.30
2018-12-11T05:42:55.982Z,6.30
2018-12-11T05:45:28.404Z,6.30
2018-12-11T05:47:58.287Z,6.30
2018-12-11T05:50:32.409Z,6.30
2018-12-11T05:53:13.815Z,6.30
2018-12-11T05:55:43.440Z,6.30
2018-12-11T05:58:13.019Z,6.20
2018-12-11T06:00:42.579Z,6.30
2018-12-11T06:03:16.087Z,6.20
2018-12-11T06:05:45.728Z,6.20
2018-12-11T06:08:16.056Z,6.30
2018-12-11T06:10:47.026Z,6.30
2018-12-11T06:13:23.061Z,6.20
2018-12-11T06:15:52.679Z,6.30
2018-12-11T06:18:23.324Z,6.30
2018-12-11T06:20:52.878Z,6.30
2018-12-11T06:23:32.403Z,6.30
2018-12-11T06:26:02.800Z,6.30
2018-12-11T06:28:32.331Z,6.30
2018-12-11T06:31:01.922Z,6.30
2018-12-11T06:33:38.636Z,6.30
2018-12-11T06:36:08.599Z,6.30
2018-12-11T06:38:51.866Z,6.30
2018-12-11T06:41:38.163Z,6.30
2018-12-11T06:44:13.203Z,6.30
2018-12-11T06:46:49.565Z,6.30
2018-12-11T06:49:19.458Z,6.30
2018-12-11T06:51:54.486Z,6.30
2018-12-11T06:54:24.237Z,6.30
2018-12-11T06:56:53.976Z,6.30
2018-12-11T06:59:25.323Z,6.30
2018-12-11T07:02:01.563Z,6.40
2018-12-11T07:04:31.666Z,6.40
2018-12-11T07:07:01.179Z,6.30
2018-12-11T07:09:35.892Z,6.30
2018-12-11T07:12:07.117Z,6.40
2018-12-11T07:14:36.608Z,6.40
2018-12-11T07:17:06.443Z,6.40
2018-12-11T07:19:42.787Z,6.40
2018-12-11T07:22:23.173Z,6.40
2018-12-11T07:24:55.802Z,6.40
2018-12-11T07:27:26.392Z,6.40
2018-12-11T07:29:55.935Z,6.40
2018-12-11T07:32:30.530Z,6.40
2018-12-11T07:35:00.134Z,6.40
2018-12-11T07:37:30.122Z,6.40
2018-12-11T07:40:00.913Z,6.30
2018-12-11T07:42:35.123Z,6.30
2018-12-11T07:45:05.414Z,6.40
2018-12-11T07:47:35.179Z,6.40
2018-12-11T07:50:05.378Z,6.30
2018-12-11T07:52:38.284Z,6.30
2018-12-11T07:55:08.005Z,6.30
2018-12-11T07:57:46.898Z,6.30
2018-12-11T08:00:16.635Z,6.30
2018-12-11T08:02:49.405Z,6.30
2018-12-11T08:05:19.827Z,6.40
2018-12-11T08:07:51.981Z,6.30
2018-12-11T08:10:21.668Z,6.30
2018-12-11T08:12:57.537Z,6.30
2018-12-11T08:15:27.017Z,6.30
2018-12-11T08:17:56.870Z,6.30
2018-12-11T08:20:26.639Z,6.30
2018-12-11T08:22:59.568Z,6.30
2018-12-11T08:25:28.957Z,6.30
2018-12-11T08:27:58.402Z,6.30
2018-12-11T08:30:29.480Z,6.30
2018-12-11T08:33:05.534Z,6.30
2018-12-11T08:35:36.131Z,6.30
2018-12-11T08:38:06.523Z,6.30
2018-12-11T08:40:41.082Z,6.30
2018-12-11T08:46:49.389Z,6.30
2018-12-11T08:49:19.464Z,6.30
2018-12-11T08:51:50.611Z,6.30
2018-12-11T08:54:20.473Z,6.30
2018-12-11T08:56:51.352Z,6.20
2018-12-11T08:59:22.362Z,6.30
2018-12-11T09:01:58.044Z,6.30
2018-12-11T09:04:30.311Z,6.30
2018-12-11T09:07:08.545Z,6.30
2018-12-11T09:09:38.213Z,6.30
2018-12-11T09:12:11.644Z,6.30
2018-12-11T09:14:41.277Z,6.30
2018-12-11T09:17:11.005Z,6.40
2018-12-11T09:19:40.770Z,6.50
2018-12-11T09:22:10.280Z,6.50
2018-12-11T09:24:40.059Z,6.40
2018-12-11T09:27:12.149Z,6.40
2018-12-11T09:34:40.876Z,6.20
2018-12-11T09:37:10.506Z,6.40
2018-12-11T09:39:40.714Z,6.40
2018-12-11T09:42:12.115Z,6.00
2018-12-11T09:44:41.986Z,6.10
2018-12-11T10:12:00.172Z,5.90
2018-12-11T10:14:32.446Z,5.90
2018-12-11T10:17:14.475Z,6.20
2018-12-11T10:19:51.917Z,6.20
2018-12-11T10:22:24.850Z,5.90
2018-12-11T10:24:55.547Z,6.10
2018-12-11T10:27:27.147Z,6.00
2018-12-11T10:30:00.297Z,6.30
2018-12-11T10:32:36.558Z,5.60
2018-12-11T10:35:15.114Z,5.90
2018-12-11T10:37:48.653Z,6.10
2018-12-11T10:40:28.429Z,6.10
2018-12-11T10:43:00.832Z,6.10
2018-12-11T10:45:35.937Z,6.10
2018-12-11T10:48:14.586Z,6.10
2018-12-11T10:50:48.899Z,6.10
2018-12-11T10:53:43.100Z,6.10
2018-12-11T10:56:19.191Z,6.10
2018-12-11T10:59:03.604Z,6.10
2018-12-11T11:01:41.663Z,6.10
2018-12-11T11:04:23.572Z,6.10
2018-12-11T11:07:03.787Z,6.10
2018-12-11T11:09:43.614Z,6.10
2018-12-11T11:12:21.655Z,6.10
2018-12-11T11:14:59.806Z,6.00
2018-12-11T11:17:51.320Z,6.20
2018-12-11T11:20:27.536Z,6.10
2018-12-11T11:23:15.888Z,6.20
2018-12-11T11:25:47.133Z,6.20
2018-12-11T11:28:26.991Z,6.20
2018-12-11T11:31:09.488Z,6.20
2018-12-11T11:33:44.827Z,6.20
2018-12-11T11:36:27.074Z,6.20
2018-12-11T11:39:08.445Z,6.20
2018-12-11T11:41:45.528Z,6.20
2018-12-11T11:44:17.468Z,6.30
2018-12-11T11:46:47.372Z,6.30
2018-12-11T11:49:19.220Z,6.30
2018-12-11T11:51:54.275Z,6.30
2018-12-11T11:54:33.755Z,6.20
2018-12-11T11:57:05.542Z,6.20
2018-12-11T11:59:38.464Z,6.20
2018-12-11T12:02:22.726Z,6.10
2018-12-11T12:05:03.385Z,6.10
2018-12-11T12:07:34.202Z,6.10
2018-12-11T12:10:37.225Z,6.10
2018-12-11T12:13:17.750Z,6.10
2018-12-11T12:16:04.063Z,6.10
2018-12-11T12:18:48.513Z,6.10
2018-12-11T12:21:51.960Z,6.10
2018-12-11T12:24:26.422Z,6.10
2018-12-11T12:27:00.909Z,6.10
2018-12-11T12:29:32.557Z,6.10
2018-12-11T12:32:15.117Z,6.00
2018-12-11T12:34:53.556Z,6.10
2018-12-11T12:37:29.195Z,6.10
2018-12-11T12:40:00.968Z,6.10
2018-12-11T12:42:42.641Z,6.10
2018-12-11T12:45:14.801Z,6.10
2018-12-11T12:47:47.498Z,6.10
2018-12-11T12:50:28.697Z,6.10
2018-12-11T12:53:08.832Z,6.10
2018-12-11T12:55:53.469Z,6.10
2018-12-11T12:58:41.492Z,6.20
2018-12-11T13:01:23.254Z,6.20
2018-12-11T13:04:06.226Z,6.20
2018-12-11T13:06:37.682Z,6.20
2018-12-11T13:09:10.651Z,6.10
2018-12-11T13:11:59.204Z,6.20
2018-12-11T13:14:59.797Z,6.20
2018-12-11T13:17:37.356Z,6.20
2018-12-11T13:20:15.848Z,6.20
2018-12-11T13:25:55.131Z,6.40
2018-12-11T13:28:38.487Z,6.40
2018-12-11T13:31:23.064Z,6.30
2018-12-11T13:37:11.367Z,6.30
2018-12-11T13:39:45.772Z,6.30
2018-12-11T13:42:33.246Z,6.30
2018-12-11T13:45:07.324Z,6.30
2018-12-11T13:47:42.372Z,6.30
2018-12-11T13:50:36.735Z,6.30
2018-12-11T13:53:14.345Z,6.30
2018-12-11T13:55:45.612Z,6.30
2018-12-11T13:58:16.423Z,6.30
2018-12-11T14:00:53.527Z,6.30
2018-12-11T14:03:30.486Z,6.30
2018-12-11T14:06:01.504Z,6.30
2018-12-11T14:08:31.703Z,6.30
2018-12-11T14:11:01.370Z,6.30
2018-12-11T14:13:36.929Z,6.30
2018-12-11T14:16:07.342Z,6.30
2018-12-11T14:18:37.684Z,6.30
2018-12-11T14:24:16.582Z,6.30
2018-12-11T14:26:52.724Z,6.30
2018-12-11T14:29:55.137Z,6.30
2018-12-11T14:32:43.882Z,6.30
2018-12-11T14:35:28.936Z,6.30
2018-12-11T14:38:32.292Z,6.40
2018-12-11T14:41:42.891Z,6.30
2018-12-11T15:01:16.249Z,6.20
2018-12-11T15:04:01.557Z,6.20
2018-12-11T15:10:35.231Z,6.20
2018-12-11T15:19:41.254Z,6.20
2018-12-11T15:22:16.086Z,6.20
2018-12-11T15:24:47.536Z,6.20
2018-12-11T15:27:37.998Z,6.20
2018-12-11T15:30:17.538Z,6.30
2018-12-11T15:32:48.857Z,6.20
2018-12-11T15:35:26.719Z,6.20
2018-12-11T15:37:59.519Z,6.20
2018-12-11T15:40:32.809Z,6.20
2018-12-11T15:43:11.920Z,6.20
2018-12-11T15:45:42.732Z,6.20
2018-12-11T15:48:15.148Z,6.20
2018-12-11T15:50:45.964Z,6.10
2018-12-11T15:53:18.672Z,6.10
2018-12-11T15:55:50.812Z,6.10
2018-12-11T15:58:25.105Z,6.10
2018-12-11T16:00:55.264Z,6.10
2018-12-11T16:03:31.296Z,6.10
2018-12-11T16:06:01.009Z,6.10
2018-12-11T16:08:30.512Z,6.10
2018-12-11T16:11:00.235Z,6.00
2018-12-11T16:13:31.453Z,6.00
2018-12-11T16:16:01.258Z,5.90
2018-12-11T16:18:30.894Z,5.90
2018-12-11T16:21:01.436Z,5.80
2018-12-11T16:23:35.347Z,5.80
2018-12-11T16:26:08.097Z,5.80
2018-12-11T16:28:54.230Z,5.80
2018-12-11T16:31:30.216Z,5.70
2018-12-11T16:34:00.089Z,5.70
2018-12-11T16:36:30.314Z,5.70
2018-12-11T16:39:04.170Z,5.70
2018-12-11T16:41:35.362Z,5.70
2018-12-11T16:44:09.907Z,5.70
2018-12-11T16:46:40.124Z,5.80
2018-12-11T16:49:10.888Z,5.70
2018-12-11T16:51:45.361Z,5.70
2018-12-11T16:54:20.674Z,5.70
2018-12-11T16:56:51.576Z,5.70
2018-12-11T16:59:28.476Z,5.70
2018-12-11T17:02:06.690Z,5.70
2018-12-11T17:04:36.560Z,5.70
2018-12-11T17:07:17.534Z,5.60
2018-12-11T17:09:47.871Z,5.60
2018-12-11T17:12:36.053Z,5.60
2018-12-11T17:15:16.384Z,5.60
2018-12-11T17:17:49.950Z,5.60
2018-12-11T17:20:26.200Z,5.60
2018-12-11T17:23:00.623Z,5.60
2018-12-11T17:25:30.429Z,5.60
2018-12-11T17:28:00.760Z,5.60
2018-12-11T17:30:32.799Z,5.60
2018-12-11T17:33:05.619Z,5.60
2018-12-11T17:35:39.500Z,5.60
2018-12-11T17:38:13.034Z,5.60
2018-12-11T17:40:48.095Z,5.60
2018-12-11T17:43:22.210Z,5.60
2018-12-11T17:45:53.557Z,5.60
2018-12-11T17:48:24.807Z,5.60
2018-12-11T17:50:54.771Z,5.60
2018-12-11T17:53:28.103Z,5.60
2018-12-11T17:56:00.625Z,5.60
2018-12-11T17:58:30.232Z,5.60
2018-12-11T18:01:00.215Z,5.60
2018-12-11T18:03:35.057Z,5.60
2018-12-11T18:06:04.730Z,5.60
2018-12-11T18:08:34.685Z,5.60
2018-12-11T18:11:04.344Z,5.60
2018-12-11T18:13:37.624Z,5.60
2018-12-11T18:16:07.356Z,5.60
2018-12-11T18:18:37.226Z,5.60
2018-12-11T18:21:14.139Z,5.60
2018-12-11T18:23:49.449Z,5.60
2018-12-11T18:26:21.439Z,5.60
2018-12-11T18:28:51.457Z,5.60
2018-12-11T18:31:27.115Z,5.60
2018-12-11T18:34:01.846Z,5.50
2018-12-11T18:36:31.602Z,5.50
2018-12-11T18:39:02.455Z,5.50
2018-12-11T18:41:33.290Z,5.50
2018-12-11T18:44:06.376Z,5.40
2018-12-11T18:46:36.276Z,5.40
2018-12-11T18:49:05.893Z,5.40
2018-12-11T18:51:36.688Z,5.40
2018-12-11T18:54:06.403Z,5.40
2018-12-11T18:56:37.063Z,5.40
2018-12-11T18:59:07.513Z,5.40
2018-12-11T19:01:37.529Z,5.50
2018-12-11T19:04:07.650Z,5.50
2018-12-11T19:06:37.360Z,5.50
2018-12-11T19:09:08.035Z,5.40
2018-12-11T19:11:37.781Z,5.40
2018-12-11T19:14:27.577Z,5.50
2018-12-11T19:17:03.165Z,5.40
2018-12-11T19:19:33.142Z,5.40
2018-12-11T19:22:03.545Z,5.40
2018-12-11T19:24:54.269Z,5.50
2018-12-11T19:27:23.701Z,5.50
2018-12-11T19:29:53.487Z,5.50
2018-12-11T19:32:23.171Z,5.40
2018-12-11T19:35:00.884Z,5.40
2018-12-11T19:37:30.538Z,5.40
2018-12-11T19:40:07.249Z,5.40
2018-12-11T19:42:43.274Z,5.40
2018-12-11T19:45:12.955Z,5.40
2018-12-11T19:47:42.455Z,5.40
2018-12-11T19:50:38.788Z,5.40
2018-12-11T19:53:11.330Z,5.40
2018-12-11T19:55:40.875Z,5.50
2018-12-11T19:58:17.548Z,5.40
2018-12-11T20:00:52.808Z,5.40
2018-12-11T20:03:30.519Z,5.40
2018-12-11T20:06:00.071Z,5.40
2018-12-11T20:08:40.073Z,5.40
2018-12-11T20:11:10.906Z,5.40
2018-12-11T20:13:50.554Z,5.40
2018-12-11T20:16:41.918Z,5.40
2018-12-11T20:19:13.649Z,5.30
2018-12-11T20:21:53.078Z,5.40
2018-12-11T20:24:52.688Z,5.40
2018-12-11T20:28:13.232Z,5.40
2018-12-11T20:31:04.301Z,5.40
2018-12-11T20:33:37.184Z,5.30
2018-12-11T20:36:18.681Z,5.30
2018-12-11T20:38:48.856Z,5.30
2018-12-11T20:41:22.096Z,5.30
2018-12-11T20:44:06.072Z,5.30
2018-12-11T20:46:37.389Z,5.30
2018-12-11T20:49:08.929Z,5.40
2018-12-11T20:51:39.136Z,5.40
2018-12-11T20:54:13.808Z,5.30
2018-12-11T20:56:44.022Z,5.30
2018-12-11T20:59:19.450Z,5.30
2018-12-11T21:01:55.787Z,5.30
2018-12-11T21:04:25.636Z,5.30
2018-12-11T21:06:57.212Z,5.30
2018-12-11T21:12:56.268Z,5.30
2018-12-11T21:15:27.060Z,5.30
2018-12-11T21:17:56.808Z,5.30
2018-12-11T21:20:27.000Z,5.30
2018-12-11T21:23:10.622Z,5.40
2018-12-11T21:26:00.477Z,5.30
2018-12-11T21:28:31.739Z,5.30
2018-12-11T21:31:35.422Z,5.30
2018-12-11T21:34:15.592Z,5.30
2018-12-11T21:36:48.798Z,5.30
2018-12-11T21:39:22.328Z,5.30
2018-12-11T21:42:05.308Z,5.30
2018-12-11T21:44:54.510Z,5.30
2018-12-11T21:47:26.219Z,5.30
2018-12-11T21:50:01.435Z,5.30
2018-12-11T21:52:38.429Z,5.40
2018-12-11T21:55:09.041Z,5.30
2018-12-11T21:57:39.852Z,5.30
2018-12-11T22:00:19.768Z,5.30
2018-12-11T22:02:53.038Z,5.30
2018-12-11T22:05:26.212Z,5.30
2018-12-11T22:07:57.283Z,5.30
2018-12-11T22:10:28.258Z,5.30
2018-12-11T22:13:02.651Z,5.30
2018-12-11T22:15:32.282Z,5.20
2018-12-11T22:18:02.060Z,5.20
2018-12-11T22:20:35.971Z,5.20
2018-12-11T22:23:07.535Z,5.20
2018-12-11T22:25:37.304Z,5.10
2018-12-11T22:28:07.009Z,5.10
2018-12-11T22:30:40.142Z,5.10
2018-12-11T22:33:16.260Z,5.10
2018-12-11T22:35:45.835Z,5.00
2018-12-11T22:38:17.988Z,5.00
2018-12-11T22:40:48.143Z,5.00
2018-12-11T22:43:27.222Z,5.00
2018-12-11T22:45:58.766Z,5.00
2018-12-11T22:48:31.925Z,5.00
2018-12-11T22:51:03.472Z,5.00
2018-12-11T22:53:40.223Z,5.00
2018-12-11T22:56:10.977Z,5.00
2018-12-11T22:58:40.833Z,5.00
2018-12-11T23:01:11.333Z,5.00
2018-12-11T23:03:48.881Z,5.00
2018-12-11T23:06:19.716Z,5.00
2018-12-11T23:08:59.178Z,5.00
2018-12-11T23:11:29.206Z,5.00
2018-12-11T23:14:03.806Z,5.00
2018-12-11T23:16:33.471Z,4.90
2018-12-11T23:19:02.934Z,5.00
2018-12-11T23:21:33.530Z,5.00
2018-12-11T23:24:07.572Z,5.00
2018-12-11T23:26:38.922Z,5.00
2018-12-11T23:29:09.454Z,5.00
2018-12-11T23:31:41.383Z,5.00
2018-12-11T23:34:11.902Z,5.00
2018-12-11T23:36:42.535Z,5.00
2018-12-11T23:39:12.507Z,5.00
2018-12-11T23:41:48.750Z,5.00
2018-12-11T23:44:18.980Z,5.00
2018-12-11T23:46:48.765Z,5.00
2018-12-11T23:49:19.785Z,5.00
2018-12-11T23:51:55.986Z,5.00
2018-12-11T23:54:25.669Z,5.00
2018-12-11T23:56:56.347Z,5.00
2018-12-11T23:59:29.156Z,5.00
